Time;durP1;ratioP1;P1;durP2;ratioP2;P2;SDS_P1;SDS_P2;PMS_P1;PMS_P2;Temp;Humidity;BMP_temperature;BMP_pressure;BME280_temperature;BME280_humidity;BME280_pressure;Samples;Min_cycle;Max_cycle;Signal;HPM_P1;HPM_P2
2021/03/28 00:01:20;;;;;;;5.68;3.65;;;6.10;99.90;;;;;;4934374;29;20288;-79
2021/03/28 00:03:58;;;;;;;9.07;3.30;;;6.10;99.90;;;;;;4934206;29;20218;-78
2021/03/28 00:06:29;;;;;;;13.52;3.83;;;6.10;99.90;;;;;;4920222;29;20195;-79
2021/03/28 00:09:13;;;;;;;7.75;3.17;;;6.10;99.90;;;;;;4922773;29;20202;-78
2021/03/28 00:11:55;;;;;;;7.22;3.75;;;6.10;99.90;;;;;;4930918;29;20211;-80
2021/03/28 00:14:36;;;;;;;10.07;3.35;;;6.10;99.90;;;;;;4932475;29;20215;-78
2021/03/28 00:17:06;;;;;;;6.43;3.30;;;6.10;99.90;;;;;;4931640;29;20674;-80
2021/03/28 00:19:36;;;;;;;5.82;2.80;;;6.10;99.90;;;;;;4936695;29;20313;-76
2021/03/28 00:22:08;;;;;;;7.45;3.20;;;6.10;99.90;;;;;;4937930;29;20289;-80
2021/03/28 00:24:41;;;;;;;6.55;3.15;;;6.20;99.90;;;;;;4938060;29;20250;-78
2021/03/28 00:27:16;;;;;;;6.55;3.05;;;6.20;99.90;;;;;;4931414;29;20294;-77
2021/03/28 00:29:49;;;;;;;5.35;2.78;;;6.20;99.90;;;;;;4922746;29;20202;-77
2021/03/28 00:32:21;;;;;;;11.75;3.85;;;6.20;99.90;;;;;;4933221;29;20254;-78
2021/03/28 00:34:52;;;;;;;6.90;3.30;;;6.30;99.90;;;;;;4934158;29;20219;-76
2021/03/28 00:37:25;;;;;;;11.60;3.70;;;6.30;99.90;;;;;;4935541;29;20568;-76
2021/03/28 00:39:54;;;;;;;8.15;2.90;;;6.30;99.90;;;;;;4934648;29;20226;-79
2021/03/28 00:42:31;;;;;;;8.18;3.15;;;6.40;99.90;;;;;;4936173;29;20678;-78
2021/03/28 00:45:03;;;;;;;10.95;3.35;;;6.40;99.90;;;;;;4936262;29;20220;-79
2021/03/28 00:47:33;;;;;;;8.85;3.40;;;6.50;99.90;;;;;;4937589;29;20195;-80
2021/03/28 00:50:10;;;;;;;8.65;3.20;;;6.50;99.90;;;;;;4927422;29;20231;-80
2021/03/28 00:52:42;;;;;;;9.20;3.70;;;6.50;99.90;;;;;;4919988;29;20198;-79
2021/03/28 00:55:17;;;;;;;8.27;3.00;;;6.60;99.90;;;;;;4915974;29;20771;-80
2021/03/28 00:57:56;;;;;;;7.00;2.97;;;6.60;99.90;;;;;;4914785;29;20302;-78
2021/03/28 01:00:48;;;;;;;9.02;3.47;;;6.60;99.90;;;;;;4916399;29;20249;-80
2021/03/28 01:03:33;;;;;;;10.63;3.20;;;6.70;99.90;;;;;;4932817;29;20664;-77
2021/03/28 01:06:08;;;;;;;7.97;3.00;;;6.70;99.90;;;;;;4937153;29;20705;-77
2021/03/28 01:08:41;;;;;;;7.43;3.15;;;6.70;99.90;;;;;;4937017;29;20680;-76
2021/03/28 01:11:13;;;;;;;5.72;3.00;;;6.80;99.90;;;;;;4932736;29;20206;-78
2021/03/28 01:14:09;;;;;;;9.30;2.97;;;6.80;99.90;;;;;;4936025;29;20299;-78
2021/03/28 01:17:01;;;;;;;8.65;3.58;;;6.80;99.90;;;;;;4915938;29;20620;-80
2021/03/28 01:19:54;;;;;;;9.18;3.22;;;6.90;99.90;;;;;;4915305;29;20349;-81
2021/03/28 01:22:30;;;;;;;5.55;2.72;;;6.90;99.90;;;;;;4915763;29;20312;-78
2021/03/28 01:25:04;;;;;;;5.47;2.53;;;6.90;99.90;;;;;;4934955;29;20253;-78
2021/03/28 01:27:34;;;;;;;14.65;3.35;;;7.00;99.90;;;;;;4935347;29;20199;-78
2021/03/28 01:30:09;;;;;;;8.63;2.75;;;7.00;99.90;;;;;;4936156;29;20213;-83
2021/03/28 01:32:39;;;;;;;9.38;3.47;;;7.00;99.90;;;;;;4935127;29;20619;-76
2021/03/28 01:35:20;;;;;;;6.88;2.47;;;7.00;99.90;;;;;;4921392;29;20221;-78
2021/03/28 01:37:51;;;;;;;7.18;2.63;;;7.10;99.90;;;;;;4928006;29;20205;-81
2021/03/28 01:40:23;;;;;;;7.45;2.50;;;7.10;99.90;;;;;;4934418;29;20224;-79
2021/03/28 01:43:03;;;;;;;9.40;2.60;;;7.10;99.90;;;;;;4933003;29;20292;-80
2021/03/28 01:45:41;;;;;;;3.75;2.25;;;7.10;99.90;;;;;;4934515;29;20239;-79
2021/03/28 01:48:26;;;;;;;6.23;2.60;;;7.20;99.90;;;;;;4935538;29;20626;-79
2021/03/28 01:51:11;;;;;;;6.65;2.10;;;7.20;99.90;;;;;;4935135;29;20535;-83
2021/03/28 01:53:47;;;;;;;4.57;2.03;;;7.20;99.90;;;;;;4934988;29;20227;-79
2021/03/28 01:56:31;;;;;;;5.90;3.25;;;7.30;99.90;;;;;;4925196;29;20214;-77
2021/03/28 01:59:08;;;;;;;6.07;2.58;;;7.30;99.90;;;;;;4924242;29;20687;-77
2021/03/28 02:01:44;;;;;;;11.07;2.60;;;7.30;99.90;;;;;;4932735;29;20296;-77
2021/03/28 02:04:23;;;;;;;8.60;3.30;;;7.30;99.90;;;;;;4933799;29;20307;-77
2021/03/28 02:07:07;;;;;;;5.10;2.80;;;7.30;99.90;;;;;;4933035;29;20209;-79
2021/03/28 02:09:44;;;;;;;3.75;1.73;;;7.30;99.90;;;;;;4934424;29;20473;-76
2021/03/28 02:12:15;;;;;;;7.47;2.40;;;7.30;99.90;;;;;;4936156;29;20222;-81
2021/03/28 02:14:54;;;;;;;8.23;2.72;;;7.30;99.90;;;;;;4934494;29;20316;-77
2021/03/28 02:17:29;;;;;;;8.45;2.80;;;7.30;99.90;;;;;;4932115;29;20288;-79
2021/03/28 02:20:01;;;;;;;5.32;2.35;;;7.30;99.90;;;;;;4920554;29;20238;-81
2021/03/28 02:22:40;;;;;;;6.95;2.65;;;7.30;99.90;;;;;;4930929;29;20197;-80
2021/03/28 02:25:11;;;;;;;5.43;2.10;;;7.30;99.90;;;;;;4933580;29;20760;-81
2021/03/28 02:27:45;;;;;;;3.53;2.40;;;7.30;99.90;;;;;;4932615;29;20265;-77
2021/03/28 02:30:23;;;;;;;7.18;2.20;;;7.40;99.90;;;;;;4933914;29;20276;-78
2021/03/28 02:32:58;;;;;;;7.78;2.30;;;7.30;99.90;;;;;;4935537;29;20215;-78
2021/03/28 02:35:49;;;;;;;12.07;2.33;;;7.40;99.90;;;;;;4935416;29;20268;-77
2021/03/28 02:38:26;;;;;;;6.93;2.53;;;7.30;99.90;;;;;;4934118;29;20233;-76
2021/03/28 02:41:03;;;;;;;4.60;2.40;;;7.30;99.90;;;;;;4921679;29;20441;-79
2021/03/28 02:43:36;;;;;;;6.50;3.03;;;7.30;99.90;;;;;;4917693;29;20208;-80
2021/03/28 02:46:13;;;;;;;5.85;2.60;;;7.30;99.90;;;;;;4914211;29;20200;-77
2021/03/28 02:49:02;;;;;;;5.30;2.25;;;7.20;99.90;;;;;;4914033;29;20764;-80
2021/03/28 02:51:39;;;;;;;10.68;2.67;;;7.20;99.90;;;;;;4914374;29;20290;-80
2021/03/28 02:54:31;;;;;;;3.83;2.28;;;7.20;99.90;;;;;;4934182;29;20274;-77
2021/03/28 02:57:15;;;;;;;5.40;2.58;;;7.10;99.90;;;;;;4934725;29;20207;-77
2021/03/28 02:59:55;;;;;;;9.57;2.80;;;7.10;99.90;;;;;;4934884;29;20226;-79
2021/03/28 03:02:40;;;;;;;6.90;2.80;;;7.10;99.90;;;;;;4926096;29;20283;-78
2021/03/28 03:05:26;;;;;;;6.28;2.85;;;7.00;99.90;;;;;;4922439;29;20306;-79
2021/03/28 03:08:05;;;;;;;10.38;2.92;;;7.00;99.90;;;;;;4932892;29;20561;-80
2021/03/28 03:10:51;;;;;;;6.47;3.30;;;7.00;99.90;;;;;;4932892;29;20658;-77
2021/03/28 03:13:48;;;;;;;8.55;2.55;;;6.90;99.90;;;;;;4932885;29;20344;-78
2021/03/28 03:16:23;;;;;;;5.88;2.67;;;6.90;99.90;;;;;;4933363;29;20214;-78
2021/03/28 03:19:11;;;;;;;6.30;2.85;;;6.90;99.90;;;;;;4933602;29;20413;-81
2021/03/28 03:22:10;;;;;;;3.90;2.55;;;6.80;99.90;;;;;;4934738;29;20293;-81
2021/03/28 03:24:59;;;;;;;9.15;3.25;;;6.80;99.90;;;;;;4923435;29;20216;-78
2021/03/28 03:27:48;;;;;;;5.18;2.10;;;6.80;99.90;;;;;;4917952;29;20749;-81
2021/03/28 03:30:29;;;;;;;7.53;2.17;;;6.70;99.90;;;;;;4913472;29;20206;-78
2021/03/28 03:33:19;;;;;;;5.28;2.45;;;6.70;99.90;;;;;;4913330;29;20206;-80
2021/03/28 03:35:57;;;;;;;7.28;2.55;;;6.70;99.90;;;;;;4913665;29;20199;-77
2021/03/28 03:38:45;;;;;;;6.65;2.88;;;6.60;99.90;;;;;;4915343;29;20295;-79
2021/03/28 03:41:38;;;;;;;7.60;2.50;;;6.60;99.90;;;;;;4915302;29;20211;-80
2021/03/28 03:44:13;;;;;;;5.43;2.45;;;6.60;99.90;;;;;;4915065;29;20219;-77
2021/03/28 03:47:01;;;;;;;3.90;2.00;;;6.50;99.90;;;;;;4917949;29;20595;-76
2021/03/28 03:49:43;;;;;;;5.70;2.60;;;6.50;99.90;;;;;;4922024;29;20226;-77
2021/03/28 03:52:30;;;;;;;4.38;2.15;;;6.50;99.90;;;;;;4930844;29;20257;-79
2021/03/28 03:55:00;;;;;;;4.97;2.13;;;6.40;99.90;;;;;;4930663;29;20313;-78
2021/03/28 03:57:36;;;;;;;7.45;2.38;;;6.40;99.90;;;;;;4931177;29;20205;-75
2021/03/28 04:00:15;;;;;;;2.92;1.92;;;6.40;99.90;;;;;;4932210;29;20260;-81
2021/03/28 04:02:52;;;;;;;3.90;2.22;;;6.40;99.90;;;;;;4934222;29;20207;-79
2021/03/28 04:05:41;;;;;;;4.70;1.95;;;6.40;99.90;;;;;;4934133;29;20254;-79
2021/03/28 04:08:26;;;;;;;5.72;2.33;;;6.40;99.90;;;;;;4928302;29;20201;-78
2021/03/28 04:11:06;;;;;;;5.80;3.35;;;6.40;99.90;;;;;;4919146;29;20291;-79
2021/03/28 04:13:53;;;;;;;4.22;2.22;;;6.40;99.90;;;;;;4912358;29;20742;-77
2021/03/28 04:16:33;;;;;;;5.88;2.50;;;6.40;99.90;;;;;;4912819;29;20207;-79
2021/03/28 04:19:17;;;;;;;6.65;2.15;;;6.40;99.90;;;;;;4913346;29;20335;-78
2021/03/28 04:21:57;;;;;;;8.40;2.53;;;6.50;99.90;;;;;;4926960;29;20285;-78
2021/03/28 04:24:34;;;;;;;6.40;2.42;;;6.50;99.90;;;;;;4933932;29;20214;-77
2021/03/28 04:27:23;;;;;;;3.45;1.90;;;6.50;99.90;;;;;;4933999;29;20656;-78
2021/03/28 04:29:51;;;;;;;6.82;2.45;;;6.50;99.90;;;;;;4930668;29;20188;-78
2021/03/28 04:32:40;;;;;;;4.20;2.45;;;6.40;99.90;;;;;;4918015;29;20253;-78
2021/03/28 04:35:24;;;;;;;3.40;2.17;;;6.40;99.90;;;;;;4912216;29;20719;-78
2021/03/28 04:38:05;;;;;;;5.40;2.70;;;6.40;99.90;;;;;;4912598;29;20291;-78
2021/03/28 04:40:58;;;;;;;6.65;2.33;;;6.40;99.90;;;;;;4911702;29;20294;-78
2021/03/28 04:43:53;;;;;;;7.97;2.90;;;6.40;99.90;;;;;;4922901;29;20214;-78
2021/03/28 04:46:43;;;;;;;4.60;2.20;;;6.40;99.90;;;;;;4933558;29;20281;-79
2021/03/28 04:49:26;;;;;;;4.22;2.78;;;6.40;99.90;;;;;;4932284;29;20779;-78
2021/03/28 04:52:25;;;;;;;6.20;2.30;;;6.40;99.90;;;;;;4929671;29;20199;-78
2021/03/28 04:55:05;;;;;;;10.02;2.75;;;6.40;99.90;;;;;;4918901;29;20752;-78
2021/03/28 04:57:50;;;;;;;4.43;3.22;;;6.50;99.90;;;;;;4912343;29;20203;-78
2021/03/28 05:00:48;;;;;;;4.68;2.58;;;6.50;99.90;;;;;;4912297;29;20227;-79
2021/03/28 05:03:39;;;;;;;5.25;2.55;;;6.50;99.90;;;;;;4913500;29;20563;-78
2021/03/28 05:06:22;;;;;;;5.80;2.17;;;6.50;99.90;;;;;;4930170;29;20250;-77
2021/03/28 05:08:55;;;;;;;7.30;2.58;;;6.50;99.90;;;;;;4922052;29;20283;-78
2021/03/28 05:11:47;;;;;;;4.20;2.00;;;6.50;99.90;;;;;;4925679;29;20687;-78
2021/03/28 05:14:43;;;;;;;5.03;2.88;;;6.50;99.90;;;;;;4934562;29;20305;-77
2021/03/28 05:17:39;;;;;;;5.38;2.92;;;6.60;99.90;;;;;;4934509;29;20293;-78
2021/03/28 05:20:31;;;;;;;3.70;2.15;;;6.60;99.90;;;;;;4934315;29;20307;-78
2021/03/28 05:23:25;;;;;;;6.20;2.03;;;6.60;99.90;;;;;;4936756;29;20301;-77
2021/03/28 05:26:18;;;;;;;8.65;2.38;;;6.70;99.90;;;;;;4936580;29;20290;-78
2021/03/28 05:29:10;;;;;;;3.67;2.40;;;6.70;99.90;;;;;;4936167;29;20285;-78
2021/03/28 05:32:02;;;;;;;4.93;2.85;;;6.70;99.90;;;;;;4921481;29;20203;-78
2021/03/28 05:34:58;;;;;;;4.78;2.42;;;6.70;99.90;;;;;;4916129;29;20328;-77
2021/03/28 05:37:54;;;;;;;8.40;3.22;;;6.80;99.90;;;;;;4914061;29;20290;-77
2021/03/28 05:40:38;;;;;;;7.40;2.50;;;6.80;99.90;;;;;;4914148;29;20322;-78
2021/03/28 05:43:42;;;;;;;5.15;2.42;;;6.90;99.90;;;;;;4926489;29;20289;-77
2021/03/28 05:46:25;;;;;;;8.88;3.35;;;6.90;99.90;;;;;;4935281;29;20262;-77
2021/03/28 05:49:07;;;;;;;5.85;2.20;;;6.90;99.90;;;;;;4935211;29;20259;-77
2021/03/28 05:51:55;;;;;;;7.55;2.90;;;7.00;99.90;;;;;;4931443;29;20204;-78
2021/03/28 05:54:51;;;;;;;6.10;2.65;;;7.00;99.90;;;;;;4920761;29;20315;-77
2021/03/28 05:57:39;;;;;;;5.65;3.13;;;7.00;99.90;;;;;;4932457;29;20200;-77
2021/03/28 06:00:35;;;;;;;4.47;2.90;;;7.00;99.90;;;;;;4932675;29;20314;-77
2021/03/28 06:03:19;;;;;;;5.13;2.80;;;7.10;99.90;;;;;;4932880;29;20208;-77
2021/03/28 06:06:15;;;;;;;3.55;2.80;;;7.10;99.90;;;;;;4935575;29;20297;-77
2021/03/28 06:09:11;;;;;;;5.88;2.47;;;7.10;99.90;;;;;;4935096;29;20206;-77
2021/03/28 06:12:12;;;;;;;7.03;2.70;;;7.20;99.90;;;;;;4935586;29;20205;-78
2021/03/28 06:14:47;;;;;;;4.03;2.25;;;7.20;99.90;;;;;;4923840;29;20773;-77
2021/03/28 06:17:24;;;;;;;5.80;2.50;;;7.30;99.90;;;;;;4924283;29;20205;-78
2021/03/28 06:20:17;;;;;;;6.38;2.60;;;7.30;99.90;;;;;;4933434;29;20316;-78
2021/03/28 06:23:12;;;;;;;4.47;2.05;;;7.40;99.90;;;;;;4932117;29;20287;-77
2021/03/28 06:26:04;;;;;;;7.22;3.08;;;7.40;99.90;;;;;;4928125;29;20811;-78
2021/03/28 06:28:53;;;;;;;6.05;2.28;;;7.40;99.90;;;;;;4932618;29;20290;-77
2021/03/28 06:31:55;;;;;;;5.13;2.20;;;7.50;99.90;;;;;;4926401;29;20194;-77
2021/03/28 06:34:56;;;;;;;4.10;2.13;;;7.50;99.90;;;;;;4920557;29;20592;-77
2021/03/28 06:37:52;;;;;;;5.03;2.20;;;7.60;99.90;;;;;;4914005;29;20202;-79
2021/03/28 06:40:40;;;;;;;6.87;2.40;;;7.60;99.90;;;;;;4912756;29;20493;-77
2021/03/28 06:43:31;;;;;;;4.68;2.15;;;7.70;99.90;;;;;;4913509;29;20787;-77
2021/03/28 06:46:22;;;;;;;5.10;1.80;;;7.70;99.90;;;;;;4934412;29;20205;-77
2021/03/28 06:49:13;;;;;;;3.03;2.10;;;7.80;99.90;;;;;;4933885;29;20884;-77
2021/03/28 06:51:51;;;;;;;3.47;2.27;;;7.90;99.90;;;;;;4934111;29;20452;-78
2021/03/28 06:54:50;;;;;;;2.90;1.90;;;7.90;99.90;;;;;;4926054;29;20466;-79
2021/03/28 06:57:38;;;;;;;6.70;2.50;;;8.00;99.90;;;;;;4917777;29;20549;-78
2021/03/28 07:00:28;;;;;;;2.63;1.97;;;8.10;99.90;;;;;;4920599;29;20569;-78
2021/03/28 07:03:25;;;;;;;6.57;2.13;;;8.20;99.90;;;;;;4921477;29;20542;-79
2021/03/28 07:06:02;;;;;;;4.80;2.10;;;8.20;99.90;;;;;;4924909;29;20706;-77
2021/03/28 07:08:58;;;;;;;4.37;2.20;;;8.30;99.90;;;;;;4914842;29;20451;-78
2021/03/28 07:11:43;;;;;;;2.53;2.07;;;8.40;99.90;;;;;;4914614;29;20526;-79
2021/03/28 07:14:41;;;;;;;6.13;2.30;;;8.40;99.90;;;;;;4915531;29;20558;-78
2021/03/28 07:17:32;;;;;;;3.50;2.27;;;8.50;99.90;;;;;;4917046;29;20438;-78
2021/03/28 07:20:21;;;;;;;3.77;2.17;;;8.60;99.90;;;;;;4922732;29;20474;-77
2021/03/28 07:23:06;;;;;;;4.50;1.87;;;8.60;99.90;;;;;;4930328;29;20446;-77
2021/03/28 07:25:50;;;;;;;4.17;1.83;;;8.70;99.90;;;;;;4926379;29;21056;-78
2021/03/28 07:28:54;;;;;;;8.47;2.70;;;8.80;99.90;;;;;;4923518;29;20454;-77
2021/03/28 07:31:43;;;;;;;5.03;2.37;;;8.80;99.90;;;;;;4925473;29;20446;-78
2021/03/28 07:34:39;;;;;;;4.60;2.43;;;8.90;99.90;;;;;;4932077;29;20553;-78
2021/03/28 07:37:37;;;;;;;7.30;2.57;;;9.00;99.90;;;;;;4916167;29;20473;-80
2021/03/28 07:40:23;;;;;;;3.93;2.83;;;9.10;99.90;;;;;;4918218;29;20494;-78
2021/03/28 07:43:12;;;;;;;5.50;2.03;;;9.20;99.90;;;;;;4923334;29;20498;-77
2021/03/28 07:45:56;;;;;;;4.73;2.30;;;9.20;99.90;;;;;;4914367;29;20459;-76
2021/03/28 07:48:46;;;;;;;5.57;2.50;;;9.30;99.90;;;;;;4912525;29;20443;-78
2021/03/28 07:51:44;;;;;;;6.93;2.70;;;9.40;99.90;;;;;;4923925;29;20438;-78
2021/03/28 07:54:39;;;;;;;4.10;2.47;;;9.40;99.90;;;;;;4919334;29;20505;-77
2021/03/28 07:57:32;;;;;;;5.33;2.57;;;9.50;99.90;;;;;;4914561;29;20487;-77
2021/03/28 08:00:21;;;;;;;6.00;2.27;;;9.50;99.90;;;;;;4913509;29;20521;-77
2021/03/28 08:03:10;;;;;;;3.53;2.10;;;9.60;99.90;;;;;;4930451;29;20526;-78
2021/03/28 08:06:00;;;;;;;8.90;2.40;;;9.70;99.90;;;;;;4932848;29;20488;-78
2021/03/28 08:08:47;;;;;;;7.27;2.70;;;9.80;99.90;;;;;;4930470;29;20454;-79
2021/03/28 08:11:34;;;;;;;11.70;2.93;;;9.80;99.90;;;;;;4933818;29;20504;-78
2021/03/28 08:14:30;;;;;;;5.07;2.30;;;9.90;99.90;;;;;;4934119;29;20565;-77
2021/03/28 08:17:21;;;;;;;5.30;2.60;;;10.00;99.90;;;;;;4919032;29;21015;-78
2021/03/28 08:20:11;;;;;;;5.00;2.17;;;10.10;99.90;;;;;;4915728;29;20482;-78
2021/03/28 08:22:56;;;;;;;6.40;2.23;;;10.20;99.90;;;;;;4931539;29;20553;-79
2021/03/28 08:25:48;;;;;;;7.73;2.20;;;10.30;99.90;;;;;;4931983;29;20492;-77
2021/03/28 08:28:38;;;;;;;8.50;2.10;;;10.40;99.90;;;;;;4923712;29;20604;-79
2021/03/28 08:31:15;;;;;;;5.80;2.70;;;10.50;99.90;;;;;;4921373;29;20453;-78
2021/03/28 08:34:15;;;;;;;4.93;2.07;;;10.60;99.90;;;;;;4928886;29;20459;-78
2021/03/28 08:37:06;;;;;;;4.67;2.00;;;10.70;99.90;;;;;;4933311;29;20570;-77
2021/03/28 08:40:02;;;;;;;4.17;2.40;;;10.80;99.90;;;;;;4921349;29;20486;-75
2021/03/28 08:42:46;;;;;;;4.50;2.23;;;11.00;99.90;;;;;;4933089;29;20603;-78
2021/03/28 08:45:29;;;;;;;3.30;2.33;;;11.10;99.90;;;;;;4933952;29;20466;-77
2021/03/28 08:48:17;;;;;;;4.77;2.17;;;11.30;99.90;;;;;;4918021;29;20533;-76
2021/03/28 08:50:57;;;;;;;4.93;2.30;;;11.40;99.90;;;;;;4925522;29;20457;-78
2021/03/28 08:53:42;;;;;;;9.20;2.30;;;11.50;99.90;;;;;;4936176;29;20509;-80
2021/03/28 08:56:31;;;;;;;8.80;2.77;;;11.60;99.90;;;;;;4937300;29;20449;-82
2021/03/28 08:59:07;;;;;;;4.90;2.47;;;11.70;99.90;;;;;;4919847;29;20526;-79
2021/03/28 09:01:43;;;;;;;4.33;2.53;;;11.90;99.90;;;;;;4921240;29;20446;-77
2021/03/28 09:04:20;;;;;;;5.90;2.20;;;12.10;99.90;;;;;;4933255;29;20533;-78
2021/03/28 09:06:55;;;;;;;5.53;2.57;;;12.20;99.90;;;;;;4915194;29;20466;-77
2021/03/28 09:09:33;;;;;;;8.60;2.47;;;12.40;99.90;;;;;;4915966;29;20449;-80
2021/03/28 09:12:08;;;;;;;5.00;2.37;;;12.50;99.90;;;;;;4916676;29;20534;-82
2021/03/28 09:15:02;;;;;;;5.63;2.43;;;12.70;99.90;;;;;;4917904;29;20490;-78
2021/03/28 09:17:40;;;;;;;5.07;2.30;;;12.80;99.90;;;;;;4920707;29;20832;-82
2021/03/28 09:20:20;;;;;;;4.20;2.77;;;12.90;99.90;;;;;;4930044;29;20485;-82
2021/03/28 09:22:51;;;;;;;6.50;2.57;;;13.00;99.90;;;;;;4929560;29;20446;-82
2021/03/28 09:25:24;;;;;;;5.77;2.40;;;13.10;99.90;;;;;;4935129;29;20872;-85
2021/03/28 09:27:59;;;;;;;5.90;2.23;;;13.20;99.90;;;;;;4913933;29;20534;-83
2021/03/28 09:30:33;;;;;;;3.60;2.13;;;13.20;99.90;;;;;;4916834;29;20797;-82
2021/03/28 09:33:16;;;;;;;5.03;2.43;;;13.30;99.90;;;;;;4933356;29;20533;-81
2021/03/28 09:36:08;;;;;;;4.60;2.37;;;13.40;99.90;;;;;;4932858;29;20541;-78
2021/03/28 09:38:57;;;;;;;5.77;2.53;;;13.50;99.90;;;;;;4916215;29;20479;-79
2021/03/28 09:41:45;;;;;;;7.97;2.77;;;13.60;99.90;;;;;;4918318;29;20458;-81
2021/03/28 09:44:24;;;;;;;6.93;2.70;;;13.70;99.90;;;;;;4917180;29;20486;-85
2021/03/28 09:47:00;;;;;;;5.73;1.90;;;13.80;99.90;;;;;;4919169;29;20553;-80
2021/03/28 09:49:52;;;;;;;5.73;2.00;;;13.80;99.90;;;;;;4927437;29;20461;-80
2021/03/28 09:52:48;;;;;;;4.33;1.60;;;13.90;99.90;;;;;;4913187;29;20443;-79
2021/03/28 09:55:33;;;;;;;8.23;2.60;;;13.90;99.90;;;;;;4928319;29;20498;-83
2021/03/28 09:58:28;;;;;;;4.90;1.93;;;14.00;99.90;;;;;;4926702;29;21038;-84
2021/03/28 10:01:05;;;;;;;6.70;2.33;;;14.00;99.90;;;;;;4922895;29;20459;-81
2021/03/28 10:03:35;;;;;;;11.93;3.80;;;14.10;99.90;;;;;;4931748;29;20448;-82
2021/03/28 10:06:04;;;;;;;5.83;2.30;;;14.10;99.90;;;;;;4927858;29;20448;-81
2021/03/28 10:08:41;;;;;;;6.33;2.30;;;14.20;99.90;;;;;;4923256;29;20443;-84
2021/03/28 10:11:20;;;;;;;6.80;2.53;;;14.20;99.90;;;;;;4934517;29;20466;-78
2021/03/28 10:14:06;;;;;;;7.03;2.70;;;14.30;99.90;;;;;;4931092;29;20550;-75
2021/03/28 10:16:41;;;;;;;6.87;2.10;;;14.30;99.90;;;;;;4924680;29;20453;-76
2021/03/28 10:19:19;;;;;;;6.57;2.30;;;14.40;99.90;;;;;;4916309;29;20481;-73
2021/03/28 10:22:06;;;;;;;5.40;2.00;;;14.40;99.90;;;;;;4926647;29;20450;-78
2021/03/28 10:24:50;;;;;;;10.63;2.23;;;14.50;99.90;;;;;;4920574;29;20554;-76
2021/03/28 10:27:43;;;;;;;5.87;3.10;;;14.50;99.90;;;;;;4917818;29;20481;-78
2021/03/28 10:30:17;;;;;;;4.67;2.00;;;14.60;99.90;;;;;;4924013;29;20439;-75
2021/03/28 10:32:58;;;;;;;5.80;2.23;;;14.70;99.90;;;;;;4931419;29;20497;-74
2021/03/28 10:35:35;;;;;;;7.20;1.90;;;14.70;99.90;;;;;;4933055;29;20530;-75
2021/03/28 10:38:27;;;;;;;7.33;3.23;;;14.70;99.90;;;;;;4930557;29;20423;-75
2021/03/28 10:41:02;;;;;;;8.40;2.20;;;14.70;99.90;;;;;;4930510;29;20450;-75
2021/03/28 10:43:53;;;;;;;7.27;2.67;;;14.70;99.90;;;;;;4926000;29;20534;-75
2021/03/28 10:46:56;;;;;;;5.90;2.27;;;14.70;99.90;;;;;;4922768;29;20466;-76
2021/03/28 10:50:06;;;;;;;5.30;1.93;;;14.60;99.90;;;;;;4926614;29;20560;-76
2021/03/28 10:53:03;;;;;;;4.60;2.03;;;14.60;99.90;;;;;;4914441;29;20549;-77
2021/03/28 10:55:54;;;;;;;3.37;1.57;;;14.60;99.90;;;;;;4915433;29;20550;-74
2021/03/28 10:58:50;;;;;;;4.30;2.03;;;14.70;99.90;;;;;;4922943;29;21035;-75
2021/03/28 11:01:47;;;;;;;6.93;2.03;;;14.70;99.90;;;;;;4917424;29;20456;-76
2021/03/28 11:04:52;;;;;;;4.07;1.90;;;14.70;99.90;;;;;;4914904;29;20558;-73
2021/03/28 11:07:37;;;;;;;4.83;2.13;;;14.80;99.90;;;;;;4924375;29;20447;-75
2021/03/28 11:10:22;;;;;;;9.37;3.60;;;14.80;99.90;;;;;;4926657;29;20529;-76
2021/03/28 11:13:07;;;;;;;8.30;3.03;;;14.90;99.90;;;;;;4916912;29;20773;-75
2021/03/28 11:15:56;;;;;;;9.97;2.20;;;14.90;99.90;;;;;;4929269;29;20474;-75
2021/03/28 11:18:51;;;;;;;4.30;1.87;;;14.90;99.90;;;;;;4925579;29;20536;-75
2021/03/28 11:21:33;;;;;;;5.10;2.40;;;15.00;99.90;;;;;;4923173;29;20445;-75
2021/03/28 11:24:23;;;;;;;11.43;3.97;;;15.00;99.90;;;;;;4918849;29;20534;-75
2021/03/28 11:27:22;;;;;;;8.07;2.93;;;15.00;98.70;;;;;;4914061;29;20442;-75
2021/03/28 11:30:08;;;;;;;7.20;2.60;;;15.00;98.10;;;;;;4926665;29;20447;-75
2021/03/28 11:32:55;;;;;;;4.20;1.90;;;15.00;98.30;;;;;;4933237;29;20537;-75
2021/03/28 11:35:28;;;;;;;7.30;3.00;;;15.00;98.60;;;;;;4920335;29;20463;-75
2021/03/28 11:38:15;;;;;;;7.10;2.73;;;15.10;98.10;;;;;;4922190;29;20446;-75
2021/03/28 11:40:45;;;;;;;9.60;3.80;;;15.10;97.70;;;;;;4920901;29;20991;-74
2021/03/28 11:43:23;;;;;;;3.90;1.83;;;15.20;96.40;;;;;;4927012;29;21031;-74
2021/03/28 11:45:51;;;;;;;7.87;2.10;;;15.20;95.30;;;;;;4912907;29;20542;-75
2021/03/28 11:48:29;;;;;;;4.57;3.10;;;15.30;95.30;;;;;;4923940;29;20962;-75
2021/03/28 11:50:59;;;;;;;5.03;2.00;;;15.30;95.30;;;;;;4920435;29;20439;-74
2021/03/28 11:53:35;;;;;;;8.60;3.30;;;15.30;95.20;;;;;;4918345;29;20455;-74
2021/03/28 11:56:04;;;;;;;7.27;2.60;;;15.30;94.40;;;;;;4913701;29;20439;-74
2021/03/28 11:58:57;;;;;;;8.70;3.50;;;15.30;93.60;;;;;;4926942;29;20505;-75
2021/03/28 12:01:53;;;;;;;5.60;2.70;;;15.40;92.70;;;;;;4919261;29;20504;-75
2021/03/28 12:04:25;;;;;;;4.80;2.70;;;15.30;92.60;;;;;;4914567;29;20470;-75
2021/03/28 12:06:56;;;;;;;5.37;3.00;;;15.30;93.20;;;;;;4914316;29;20449;-75
2021/03/28 12:09:30;;;;;;;4.07;1.90;;;15.30;93.50;;;;;;4917560;29;20444;-75
2021/03/28 12:12:13;;;;;;;8.43;3.40;;;15.30;94.00;;;;;;4900777;29;20448;-74
2021/03/28 12:14:40;;;;;;;7.00;2.67;;;15.30;93.90;;;;;;4924018;29;20517;-75
2021/03/28 12:17:30;;;;;;;5.90;2.57;;;15.30;93.40;;;;;;4917766;29;20538;-75
2021/03/28 12:20:20;;;;;;;8.97;2.60;;;15.30;92.90;;;;;;4920384;29;20570;-75
2021/03/28 12:22:54;;;;;;;7.17;2.77;;;15.40;93.00;;;;;;4912787;29;20545;-74
2021/03/28 12:25:25;;;;;;;7.33;2.77;;;15.40;93.10;;;;;;4919516;29;20474;-75
2021/03/28 12:28:20;;;;;;;6.10;2.70;;;15.40;92.40;;;;;;4925359;29;20482;-75
2021/03/28 12:30:46;;;;;;;3.90;2.00;;;15.50;92.50;;;;;;4922146;29;20442;-75
2021/03/28 12:33:16;;;;;;;4.57;1.90;;;15.60;92.10;;;;;;4932287;29;20442;-75
2021/03/28 12:35:58;;;;;;;8.30;3.10;;;15.60;91.60;;;;;;4930097;29;21049;-75
2021/03/28 12:38:43;;;;;;;7.13;2.33;;;15.70;91.60;;;;;;4930222;29;20448;-75
2021/03/28 12:41:16;;;;;;;8.00;2.40;;;15.80;91.70;;;;;;4912099;29;20946;-75
2021/03/28 12:43:48;;;;;;;9.10;2.97;;;15.80;91.50;;;;;;4915374;29;20824;-74
2021/03/28 12:46:44;;;;;;;5.43;2.40;;;15.90;90.50;;;;;;4916057;29;20431;-75
2021/03/28 12:49:16;;;;;;;5.10;2.40;;;16.00;90.00;;;;;;4887705;29;622812;-74
2021/03/28 12:51:47;;;;;;;7.87;2.97;;;16.00;90.40;;;;;;4919717;29;20202;-76
2021/03/28 12:54:21;;;;;;;6.30;2.60;;;16.00;89.90;;;;;;4902402;29;20473;-76
2021/03/28 12:56:50;;;;;;;3.73;2.00;;;16.00;90.00;;;;;;4918961;29;20479;-75
2021/03/28 12:59:32;;;;;;;5.87;2.57;;;16.10;90.40;;;;;;4934615;29;20457;-74
2021/03/28 13:02:12;;;;;;;6.50;2.50;;;16.10;90.30;;;;;;4929977;29;20833;-76
2021/03/28 13:04:40;;;;;;;4.03;2.30;;;16.20;89.80;;;;;;4930602;29;20449;-76
2021/03/28 13:07:26;;;;;;;4.80;2.63;;;16.20;87.30;;;;;;4918842;29;20461;-77
2021/03/28 13:09:53;;;;;;;8.03;1.90;;;16.20;84.60;;;;;;4917969;29;20549;-76
2021/03/28 13:12:24;;;;;;;6.40;2.30;;;16.30;84.90;;;;;;4929317;29;20802;-75
2021/03/28 13:15:09;;;;;;;6.53;2.00;;;16.30;85.60;;;;;;4919161;29;20445;-75
2021/03/28 13:17:38;;;;;;;7.70;3.00;;;16.40;86.00;;;;;;4917094;29;20422;-75
2021/03/28 13:20:20;;;;;;;7.10;2.43;;;16.40;85.10;;;;;;4914931;29;20552;-75
2021/03/28 13:22:48;;;;;;;4.13;1.70;;;16.50;85.70;;;;;;4933273;29;20808;-76
2021/03/28 13:25:26;;;;;;;4.30;2.00;;;16.50;85.20;;;;;;4931282;29;20522;-74
2021/03/28 13:28:25;;;;;;;4.70;2.20;;;16.60;84.70;;;;;;4916906;29;20442;-75
2021/03/28 13:31:12;;;;;;;5.47;2.27;;;16.60;84.50;;;;;;4901636;29;20908;-74
2021/03/28 13:33:42;;;;;;;6.10;2.80;;;16.60;83.80;;;;;;4935444;29;20449;-75
2021/03/28 13:36:21;;;;;;;7.50;2.27;;;16.60;82.20;;;;;;4935331;29;20892;-74
2021/03/28 13:39:18;;;;;;;6.27;1.90;;;16.70;81.00;;;;;;4923802;29;20505;-75
2021/03/28 13:42:00;;;;;;;4.20;1.93;;;16.70;80.40;;;;;;4916729;29;20426;-75
2021/03/28 13:44:30;;;;;;;5.03;2.07;;;16.70;80.60;;;;;;4915536;29;20524;-75
2021/03/28 13:47:00;;;;;;;5.70;2.10;;;16.70;79.00;;;;;;4915306;29;20512;-74
2021/03/28 13:49:39;;;;;;;3.53;2.00;;;16.70;79.40;;;;;;4916959;29;20517;-75
2021/03/28 13:52:15;;;;;;;3.33;1.97;;;16.70;79.10;;;;;;4902823;29;20941;-75
2021/03/28 13:54:43;;;;;;;6.33;2.60;;;16.70;78.10;;;;;;4916904;29;20536;-75
2021/03/28 13:57:15;;;;;;;3.47;1.87;;;16.70;77.50;;;;;;4901674;29;20843;-75
2021/03/28 13:59:58;;;;;;;3.80;1.93;;;16.70;76.70;;;;;;4911513;29;20544;-74
2021/03/28 14:02:27;;;;;;;3.53;1.70;;;16.70;75.40;;;;;;4922522;29;20899;-75
2021/03/28 14:04:59;;;;;;;4.57;1.90;;;16.70;74.80;;;;;;4899401;29;20501;-73
2021/03/28 14:07:29;;;;;;;4.40;2.17;;;16.80;74.20;;;;;;4934603;29;20425;-74
2021/03/28 14:10:08;;;;;;;4.33;1.70;;;16.70;73.70;;;;;;4934976;29;20918;-76
2021/03/28 14:12:41;;;;;;;6.13;2.27;;;16.70;73.40;;;;;;4929592;29;20549;-75
2021/03/28 14:15:36;;;;;;;6.20;2.57;;;16.70;73.10;;;;;;4935886;29;20440;-75